Airfield :
LOGIN :

Register | Disclaimer

   EN    FR    IT 

 










Legend :    VFR   Marginal VFR   IFR   Intensive IFR   Very Intensive IFR
Visi :
Ceiling :
>= 8 km
>= 3000ft
5 to 8 km
1000 to 3000 ft
1500m to 5 km
500 to 1000 ft
800 to 1500m
200 to 500 ft
< 800m
< 200 ft
Symbols :   Thunderstorms  Fog  Heavy snow  Heavy precipitations  Wind > 20 kt
SIGMETs :     Misc.  Thunderstorms  Icing  Turbulence  Mountain Waves  Volcanic Ashes






- Airport Elevation : 249 ft


EGOS - RAF Shawbury

CURRENT METAR :
  • 200650Z AUTO 14005KT 9999 OVC100/// 11/08 Q1017

EXPIRED METARs :
  • 200620Z AUTO 15004KT 9999 OVC097/// 11/08 Q1017
  • 200550Z AUTO 17005KT 9999 OVC099/// 11/07 Q1018
  • 200520Z AUTO 19002KT 9999 OVC100/// 10/07 Q1017
  • 200450Z AUTO 25002KT 9999 OVC110/// 10/07 Q1018
  • 200420Z AUTO 22002KT 9999 OVC120/// 10/07 Q1017

TAF TAF EGOS
Valid from the 20 at 07:00 until the 20 at 15:00 UTC


200554Z 2007/2015 19007KT 9999 SCT030
TEMPO 2009/2012 6000 SHRA SCT020
PROB40
TEMPO 2012/2015 21017G27KT 3000 +SHRA BKN023CB



MET'MAP, your aeronautical weather chart ! - Copyright ORBIFLY December 2007 - Disclaimer

ORBIFLY MET'MAP TEAM :

Programming & Development : Alexandra Zaïnal
Original concept : Baudouin d'Aumeries
Technical & hardware support : Manuel Goepfert
Assistance : Marc-Olivier Méhu

Contact : metmap@orbifly.com




SOURCES & CREDITS :

   NOAA